Time;durP1;ratioP1;P1;durP2;ratioP2;P2;SDS_P1;SDS_P2;PMS_P1;PMS_P2;Temp;Humidity;BMP_temperature;BMP_pressure;BME280_temperature;BME280_humidity;BME280_pressure;Samples;Min_cycle;Max_cycle;Signal;HPM_P1;HPM_P2
2021/06/04 00:01:25;;;;;;;11.25;10.00;;;20.00;99.90;;;;;;5010679;28;20116;-83
2021/06/04 00:03:51;;;;;;;12.38;11.07;;;19.90;99.90;;;;;;5010598;28;20018;-83
2021/06/04 00:06:18;;;;;;;10.73;9.63;;;19.90;99.90;;;;;;5010494;28;20105;-83
2021/06/04 00:08:46;;;;;;;12.23;10.75;;;19.90;99.90;;;;;;5010755;28;20040;-83
2021/06/04 00:11:18;;;;;;;12.23;10.82;;;19.90;99.90;;;;;;5011207;28;20037;-83
2021/06/04 00:13:52;;;;;;;11.90;10.63;;;19.90;99.90;;;;;;5010894;28;20036;-83
2021/06/04 00:16:27;;;;;;;12.45;10.27;;;19.90;99.90;;;;;;5010531;28;20017;-85
2021/06/04 00:18:53;;;;;;;12.65;11.07;;;19.90;99.90;;;;;;5026093;28;20481;-83
2021/06/04 00:21:23;;;;;;;12.05;10.80;;;19.90;99.90;;;;;;5012012;28;20040;-82
2021/06/04 00:23:50;;;;;;;12.88;10.38;;;19.90;99.90;;;;;;5036407;28;20485;-83
2021/06/04 00:26:21;;;;;;;12.15;10.85;;;19.90;99.90;;;;;;5050967;28;20020;-83
2021/06/04 00:29:17;;;;;;;13.27;11.70;;;19.90;99.90;;;;;;5036683;28;20088;-85
2021/06/04 00:31:45;;;;;;;13.52;11.35;;;19.90;99.90;;;;;;5049016;28;20105;-85
2021/06/04 00:34:12;;;;;;;13.80;11.60;;;19.80;99.90;;;;;;5054289;28;20083;-85
2021/06/04 00:36:43;;;;;;;13.52;11.10;;;19.80;99.90;;;;;;5054139;28;20032;-85
2021/06/04 00:39:10;;;;;;;13.18;11.77;;;19.80;99.90;;;;;;5038348;28;20108;-85
2021/06/04 00:41:49;;;;;;;12.45;11.15;;;19.70;99.90;;;;;;5038683;28;20044;-84
2021/06/04 00:44:16;;;;;;;14.35;12.20;;;19.70;99.90;;;;;;5038750;28;20100;-84
2021/06/04 00:46:44;;;;;;;15.32;12.90;;;19.60;99.90;;;;;;5056262;28;20035;-84
2021/06/04 00:49:11;;;;;;;13.45;12.00;;;19.60;99.90;;;;;;5038636;28;20028;-84
2021/06/04 00:51:49;;;;;;;16.08;12.15;;;19.60;99.90;;;;;;5055189;28;20051;-84
2021/06/04 00:54:17;;;;;;;16.63;12.32;;;19.60;99.90;;;;;;5038477;28;20025;-84
2021/06/04 00:56:43;;;;;;;16.10;13.18;;;19.60;99.90;;;;;;5056876;28;20395;-84
2021/06/04 00:59:11;;;;;;;15.18;13.57;;;19.50;99.90;;;;;;5055153;28;20392;-85
2021/06/04 01:01:38;;;;;;;15.52;13.32;;;19.50;99.90;;;;;;5061625;28;20074;-84
2021/06/04 01:04:14;;;;;;;18.15;13.85;;;19.50;99.90;;;;;;5072310;28;20372;-84
2021/06/04 01:07:31;;;;;;;17.70;14.68;;;19.40;99.90;;;;;;5056136;28;20453;-84
2021/06/04 01:10:24;;;;;;;16.73;14.65;;;19.40;99.90;;;;;;4994734;28;20075;-85
2021/06/04 01:13:26;;;;;;;14.05;12.57;;;19.30;99.90;;;;;;5035020;28;20105;-85
2021/06/04 01:16:10;;;;;;;16.10;13.77;;;19.30;99.90;;;;;;5071589;28;20020;-85
2021/06/04 01:19:15;;;;;;;15.82;13.65;;;19.30;99.90;;;;;;5046240;28;20029;-85
2021/06/04 01:21:50;;;;;;;16.90;13.60;;;19.30;99.90;;;;;;5038665;28;20021;-86
2021/06/04 01:24:52;;;;;;;15.48;13.35;;;19.20;99.90;;;;;;5056046;28;20040;-85
2021/06/04 01:27:23;;;;;;;16.17;14.35;;;19.20;99.90;;;;;;5043078;28;20017;-86
2021/06/04 01:30:08;;;;;;;16.67;14.20;;;19.20;99.90;;;;;;5038320;28;20025;-85
2021/06/04 01:32:37;;;;;;;18.40;15.63;;;19.20;99.90;;;;;;5037960;28;20417;-85
2021/06/04 01:35:13;;;;;;;19.52;17.45;;;19.10;99.90;;;;;;5038407;28;20013;-85
2021/06/04 01:37:40;;;;;;;20.70;17.23;;;19.10;99.90;;;;;;5038106;28;20025;-85
2021/06/04 01:40:17;;;;;;;21.20;18.50;;;19.10;99.90;;;;;;5055109;28;20021;-85
2021/06/04 01:42:49;;;;;;;22.27;16.95;;;19.00;99.90;;;;;;5038068;28;20086;-85
2021/06/04 01:45:30;;;;;;;22.55;17.02;;;19.00;99.90;;;;;;5054349;28;20017;-85
2021/06/04 01:48:09;;;;;;;19.10;16.33;;;19.00;99.90;;;;;;5037993;28;20124;-85
2021/06/04 01:50:49;;;;;;;21.17;16.60;;;19.00;99.90;;;;;;5056427;28;20342;-86
2021/06/04 01:53:20;;;;;;;19.83;16.67;;;18.90;99.90;;;;;;5037553;28;20060;-84
2021/06/04 01:55:51;;;;;;;19.70;15.65;;;18.90;99.90;;;;;;5037544;28;20087;-84
2021/06/04 01:58:52;;;;;;;20.65;16.33;;;18.80;99.90;;;;;;5055713;28;20017;-84
2021/06/04 02:01:37;;;;;;;19.33;15.52;;;18.80;99.90;;;;;;5010770;28;20036;-84
2021/06/04 02:04:11;;;;;;;19.33;15.63;;;18.70;99.90;;;;;;5050527;28;20029;-84
2021/06/04 02:06:39;;;;;;;21.55;17.33;;;18.70;99.90;;;;;;5037521;28;20020;-84
2021/06/04 02:09:10;;;;;;;21.55;17.35;;;18.70;99.90;;;;;;5055072;28;20025;-85
2021/06/04 02:11:39;;;;;;;21.02;17.55;;;18.60;99.90;;;;;;5055221;28;20049;-84
2021/06/04 02:14:08;;;;;;;20.40;15.90;;;18.60;99.90;;;;;;5037262;28;20072;-84
2021/06/04 02:16:55;;;;;;;23.45;18.77;;;18.60;99.90;;;;;;5037016;28;20472;-84
2021/06/04 02:19:59;;;;;;;23.25;17.92;;;18.50;99.90;;;;;;5037039;28;20484;-84
2021/06/04 02:22:31;;;;;;;22.52;18.23;;;18.50;99.90;;;;;;4957237;28;20173;-83
2021/06/04 02:25:18;;;;;;;22.00;17.20;;;18.40;99.90;;;;;;5004040;28;20026;-84
2021/06/04 02:27:50;;;;;;;26.00;19.55;;;18.40;99.90;;;;;;5035330;28;20030;-83
2021/06/04 02:30:19;;;;;;;26.55;20.85;;;18.40;99.90;;;;;;5034687;28;20067;-84
2021/06/04 02:33:02;;;;;;;24.00;19.70;;;18.40;99.90;;;;;;5034746;28;20370;-84
2021/06/04 02:35:34;;;;;;;23.67;18.50;;;18.30;99.90;;;;;;5034570;28;20429;-84
2021/06/04 02:38:14;;;;;;;22.60;19.70;;;18.30;99.90;;;;;;5035134;28;20299;-85
2021/06/04 02:40:46;;;;;;;25.27;19.50;;;18.30;99.90;;;;;;5016769;28;20024;-84
2021/06/04 02:43:15;;;;;;;24.58;19.52;;;18.20;99.90;;;;;;5034587;28;20021;-84
2021/06/04 02:45:45;;;;;;;24.67;19.73;;;18.20;99.90;;;;;;5034948;28;20053;-85
2021/06/04 02:48:16;;;;;;;23.80;18.88;;;18.20;99.90;;;;;;5034298;28;20041;-84
2021/06/04 02:50:49;;;;;;;24.40;19.13;;;18.10;99.90;;;;;;5015886;28;20051;-84
2021/06/04 02:53:28;;;;;;;27.15;20.23;;;18.20;99.90;;;;;;5034821;28;20009;-84
2021/06/04 02:56:03;;;;;;;25.08;19.77;;;18.10;99.90;;;;;;5034100;28;20415;-84
2021/06/04 02:58:29;;;;;;;24.75;19.42;;;18.10;99.90;;;;;;5034485;28;20401;-84
2021/06/04 03:00:55;;;;;;;26.98;20.90;;;18.10;99.90;;;;;;5021528;28;20022;-84
2021/06/04 03:03:21;;;;;;;27.05;19.92;;;18.00;99.90;;;;;;5035225;28;20026;-84
2021/06/04 03:05:47;;;;;;;26.10;19.65;;;18.00;99.90;;;;;;5038193;28;20033;-83
2021/06/04 03:08:15;;;;;;;28.52;20.85;;;18.00;99.90;;;;;;5042184;28;20076;-84
2021/06/04 03:10:44;;;;;;;25.98;19.80;;;17.90;99.90;;;;;;5034670;28;20021;-84
2021/06/04 03:13:23;;;;;;;27.30;19.30;;;17.90;99.90;;;;;;5034344;28;20376;-84
2021/06/04 03:15:55;;;;;;;25.20;18.35;;;17.90;99.90;;;;;;5016236;28;20380;-84
2021/06/04 03:18:28;;;;;;;24.58;18.88;;;17.90;99.90;;;;;;5016335;28;20488;-84
2021/06/04 03:20:55;;;;;;;25.55;19.17;;;17.90;99.90;;;;;;5001507;28;20014;-85
2021/06/04 03:23:35;;;;;;;;;;;;;;;;;;;;;
2021/06/04 03:26:05;;;;;;;26.85;19.73;;;17.80;99.90;;;;;;5034047;28;20489;-85
2021/06/04 03:28:31;;;;;;;25.85;19.77;;;17.80;99.90;;;;;;5034321;28;20549;-84
2021/06/04 03:30:58;;;;;;;25.90;18.70;;;17.70;99.90;;;;;;5033637;28;20049;-84
2021/06/04 03:33:28;;;;;;;24.75;18.63;;;17.70;99.90;;;;;;5016143;28;20045;-85
2021/06/04 03:36:06;;;;;;;26.80;20.30;;;17.80;99.90;;;;;;5016201;28;20021;-85
2021/06/04 03:38:33;;;;;;;26.48;20.00;;;17.80;99.90;;;;;;5016509;28;20458;-85
2021/06/04 03:40:59;;;;;;;24.13;18.95;;;17.70;99.90;;;;;;5016226;28;20361;-85
2021/06/04 03:43:27;;;;;;;25.50;19.98;;;17.80;99.90;;;;;;5015894;28;20013;-84
2021/06/04 03:45:53;;;;;;;24.90;19.10;;;17.80;99.90;;;;;;5033238;28;20021;-84
2021/06/04 03:48:24;;;;;;;24.85;18.50;;;17.80;99.90;;;;;;5015831;28;20033;-84
2021/06/04 03:50:54;;;;;;;23.55;18.83;;;17.80;99.90;;;;;;5000080;28;20076;-86
2021/06/04 03:53:20;;;;;;;24.77;18.77;;;17.80;99.90;;;;;;5033142;28;20025;-83
2021/06/04 03:55:46;;;;;;;25.98;20.08;;;17.70;99.90;;;;;;5015452;28;20515;-86
2021/06/04 03:58:13;;;;;;;26.88;20.02;;;17.70;99.90;;;;;;5033632;28;20022;-84
2021/06/04 04:00:45;;;;;;;23.73;17.30;;;17.70;99.90;;;;;;5015847;28;20112;-84
2021/06/04 04:03:13;;;;;;;22.70;17.75;;;17.70;99.90;;;;;;5015934;28;20013;-84
2021/06/04 04:05:39;;;;;;;25.20;19.17;;;17.70;99.90;;;;;;5033647;28;20022;-84
2021/06/04 04:08:06;;;;;;;24.65;18.42;;;17.70;99.90;;;;;;5015777;28;20061;-83
2021/06/04 04:10:32;;;;;;;23.35;18.23;;;17.70;99.90;;;;;;5019738;28;20073;-84
2021/06/04 04:12:58;;;;;;;22.45;18.33;;;17.70;99.90;;;;;;5037090;28;20032;-84
2021/06/04 04:15:27;;;;;;;25.75;18.70;;;17.70;99.90;;;;;;5019438;28;20365;-85
2021/06/04 04:17:58;;;;;;;22.88;17.98;;;17.70;99.90;;;;;;5019644;28;20018;-84
2021/06/04 04:20:33;;;;;;;24.80;18.88;;;17.60;99.90;;;;;;5037283;28;20022;-84
2021/06/04 04:23:00;;;;;;;25.17;19.77;;;17.60;99.90;;;;;;5041928;28;20060;-85
2021/06/04 04:25:32;;;;;;;23.52;18.38;;;17.60;99.90;;;;;;5036364;28;20116;-84
2021/06/04 04:27:59;;;;;;;25.13;18.73;;;17.60;99.90;;;;;;5037022;28;20022;-84
2021/06/04 04:30:25;;;;;;;26.45;19.20;;;17.60;99.90;;;;;;5018985;28;20104;-84
2021/06/04 04:32:51;;;;;;;29.27;19.55;;;17.60;99.90;;;;;;5037685;28;20442;-83
2021/06/04 04:35:22;;;;;;;23.48;17.70;;;17.70;99.90;;;;;;5019075;28;20379;-84
2021/06/04 04:37:48;;;;;;;25.30;18.75;;;17.70;99.90;;;;;;5019342;28;20200;-85
2021/06/04 04:40:19;;;;;;;23.90;18.63;;;17.70;99.90;;;;;;5019461;28;20465;-83
2021/06/04 04:42:46;;;;;;;21.92;17.17;;;17.70;99.90;;;;;;5037095;28;20052;-84
2021/06/04 04:45:17;;;;;;;22.80;17.73;;;17.70;99.90;;;;;;5037296;28;20076;-84
2021/06/04 04:47:43;;;;;;;23.00;18.35;;;17.80;99.90;;;;;;5039584;28;20030;-84
2021/06/04 04:50:12;;;;;;;24.05;18.85;;;17.80;99.90;;;;;;5031076;28;20033;-84
2021/06/04 04:52:37;;;;;;;23.67;18.55;;;17.80;99.90;;;;;;5038600;28;20495;-84
2021/06/04 04:55:08;;;;;;;25.75;19.35;;;17.80;99.90;;;;;;5039678;28;20021;-83
2021/06/04 04:57:34;;;;;;;23.25;19.23;;;17.90;99.90;;;;;;5019168;28;20036;-84
2021/06/04 04:59:59;;;;;;;27.52;19.50;;;17.90;99.90;;;;;;5019053;28;20030;-84
2021/06/04 05:02:25;;;;;;;23.65;19.05;;;17.90;99.90;;;;;;5018961;28;20469;-83
2021/06/04 05:04:52;;;;;;;25.80;20.05;;;18.00;99.90;;;;;;5019357;28;20473;-83
2021/06/04 05:07:18;;;;;;;22.38;18.10;;;18.00;99.90;;;;;;5036896;28;20017;-84
2021/06/04 05:09:44;;;;;;;25.40;19.48;;;18.00;99.90;;;;;;5033745;28;20026;-84
2021/06/04 05:12:11;;;;;;;23.77;18.40;;;18.00;99.90;;;;;;5039464;28;20402;-83
2021/06/04 05:14:37;;;;;;;24.33;17.88;;;18.10;99.90;;;;;;5035472;28;20029;-83
2021/06/04 05:17:03;;;;;;;22.45;18.33;;;18.10;99.90;;;;;;5036361;28;20017;-83
2021/06/04 05:19:30;;;;;;;25.67;19.45;;;18.20;99.90;;;;;;5018125;28;20033;-85
2021/06/04 05:21:56;;;;;;;24.08;18.75;;;18.20;99.90;;;;;;5018428;28;20101;-85
2021/06/04 05:24:23;;;;;;;25.33;19.70;;;18.20;99.90;;;;;;5035646;28;20052;-85
2021/06/04 05:26:49;;;;;;;24.83;19.05;;;18.30;99.90;;;;;;5018409;28;20021;-85
2021/06/04 05:29:15;;;;;;;23.92;18.45;;;18.40;99.90;;;;;;5018475;28;20100;-85
2021/06/04 05:31:41;;;;;;;22.77;17.75;;;18.50;99.90;;;;;;5036134;28;20480;-86
2021/06/04 05:34:08;;;;;;;23.17;17.83;;;18.50;99.90;;;;;;5018445;28;20013;-85
2021/06/04 05:36:42;;;;;;;24.35;18.40;;;18.50;99.90;;;;;;5018138;28;20022;-85
2021/06/04 05:39:25;;;;;;;20.67;16.38;;;18.50;99.90;;;;;;5018357;28;20025;-85
2021/06/04 05:41:54;;;;;;;22.23;16.83;;;18.50;99.90;;;;;;5018656;28;20029;-85
2021/06/04 05:44:22;;;;;;;18.92;15.63;;;18.50;99.90;;;;;;5018285;28;20100;-85
2021/06/04 05:46:50;;;;;;;24.42;18.50;;;18.60;99.90;;;;;;5002086;28;20064;-85
2021/06/04 05:49:18;;;;;;;22.23;17.08;;;18.50;99.90;;;;;;5035626;28;20389;-84
2021/06/04 05:51:46;;;;;;;20.17;16.10;;;18.40;99.90;;;;;;5018289;28;20417;-85
2021/06/04 05:54:16;;;;;;;21.45;17.38;;;18.50;99.90;;;;;;5035302;28;20018;-85
2021/06/04 05:56:45;;;;;;;21.58;17.13;;;18.50;99.90;;;;;;5017836;28;20025;-85
2021/06/04 05:59:16;;;;;;;20.27;15.98;;;18.50;99.90;;;;;;5035490;28;20037;-85
2021/06/04 06:01:46;;;;;;;20.17;16.48;;;18.60;99.90;;;;;;5018263;28;20053;-85
2021/06/04 06:04:12;;;;;;;20.45;16.25;;;18.60;99.90;;;;;;5035595;28;20025;-85
2021/06/04 06:06:38;;;;;;;23.42;16.40;;;18.60;99.90;;;;;;5017926;28;20078;-85
2021/06/04 06:09:06;;;;;;;20.45;16.08;;;18.70;99.90;;;;;;5035255;28;20437;-85
2021/06/04 06:11:33;;;;;;;19.15;15.30;;;18.90;99.90;;;;;;5016778;28;20063;-84
2021/06/04 06:14:01;;;;;;;18.40;15.48;;;19.00;99.90;;;;;;5013293;28;20368;-84
2021/06/04 06:16:30;;;;;;;20.40;15.70;;;19.10;99.90;;;;;;5016353;28;20425;-85
2021/06/04 06:18:57;;;;;;;20.02;15.57;;;19.30;99.90;;;;;;5032866;28;20030;-84
2021/06/04 06:21:26;;;;;;;20.70;16.27;;;19.40;99.90;;;;;;5035579;28;20036;-84
2021/06/04 06:23:52;;;;;;;20.85;16.08;;;19.50;99.90;;;;;;5031372;28;20049;-84
2021/06/04 06:26:24;;;;;;;20.60;16.80;;;19.60;99.90;;;;;;5036442;28;20052;-84
2021/06/04 06:28:53;;;;;;;18.52;15.13;;;19.60;99.90;;;;;;5038364;28;20411;-84
2021/06/04 06:31:28;;;;;;;19.85;14.65;;;19.70;99.90;;;;;;5035865;28;20056;-83
2021/06/04 06:33:54;;;;;;;20.27;14.93;;;19.80;99.90;;;;;;5054121;28;20025;-85
2021/06/04 06:36:26;;;;;;;18.42;14.85;;;19.80;99.90;;;;;;5039102;28;20025;-84
2021/06/04 06:39:00;;;;;;;18.60;13.73;;;19.90;99.90;;;;;;5064581;28;20028;-84
2021/06/04 06:41:29;;;;;;;17.80;13.30;;;20.00;99.90;;;;;;5056527;28;20060;-85
2021/06/04 06:43:57;;;;;;;16.77;13.73;;;20.00;99.90;;;;;;5042474;28;20044;-85
2021/06/04 06:46:26;;;;;;;18.67;14.43;;;20.00;99.90;;;;;;5055912;28;20410;-84
2021/06/04 06:48:59;;;;;;;17.13;13.43;;;20.00;99.90;;;;;;5036249;28;20036;-85
2021/06/04 06:51:28;;;;;;;17.95;13.00;;;20.10;99.90;;;;;;5055052;28;20074;-85
2021/06/04 06:54:06;;;;;;;;;;;;;;;;;;;;;
2021/06/04 06:56:32;;;;;;;17.35;12.65;;;20.20;99.90;;;;;;5054502;28;20027;-85
2021/06/04 06:59:06;;;;;;;15.25;12.70;;;20.20;99.90;;;;;;5035868;28;20029;-85
2021/06/04 07:01:35;;;;;;;16.10;13.13;;;20.30;99.90;;;;;;5054585;28;20403;-85
2021/06/04 07:04:08;;;;;;;15.50;11.73;;;20.40;99.90;;;;;;5036373;28;20063;-85
2021/06/04 07:06:45;;;;;;;23.77;18.10;;;20.40;99.90;;;;;;5054730;28;20101;-86
2021/06/04 07:09:32;;;;;;;21.25;16.15;;;20.50;99.90;;;;;;5054501;28;20107;-85
2021/06/04 07:12:02;;;;;;;19.83;15.82;;;20.70;99.90;;;;;;5046769;28;20051;-85
2021/06/04 07:14:33;;;;;;;19.23;14.43;;;20.80;99.90;;;;;;5062075;28;20021;-84
2021/06/04 07:17:02;;;;;;;17.45;13.25;;;21.00;99.90;;;;;;5036469;28;20051;-85
2021/06/04 07:19:31;;;;;;;16.15;12.55;;;21.10;99.90;;;;;;5054308;28;20025;-85
2021/06/04 07:21:57;;;;;;;16.98;13.10;;;21.20;99.90;;;;;;5035920;28;20150;-85
2021/06/04 07:24:25;;;;;;;15.18;12.70;;;21.30;99.90;;;;;;5035194;28;20469;-85
2021/06/04 07:26:59;;;;;;;13.80;11.45;;;21.40;99.90;;;;;;5053137;28;20029;-85
2021/06/04 07:29:35;;;;;;;14.48;11.65;;;21.60;99.90;;;;;;5035807;28;20025;-86
2021/06/04 07:32:15;;;;;;;14.82;11.15;;;21.70;99.90;;;;;;5054326;28;20025;-85
2021/06/04 07:34:44;;;;;;;12.73;10.50;;;21.90;99.90;;;;;;5021304;28;20032;-85
2021/06/04 07:37:19;;;;;;;12.88;10.30;;;22.00;99.90;;;;;;5036045;28;20498;-85
2021/06/04 07:39:53;;;;;;;13.32;10.98;;;22.10;99.90;;;;;;5053269;28;20549;-85
2021/06/04 07:42:19;;;;;;;14.27;11.50;;;22.20;99.90;;;;;;5030345;28;20025;-85
2021/06/04 07:44:48;;;;;;;13.77;11.30;;;22.20;99.90;;;;;;5053083;28;20104;-85
2021/06/04 07:47:19;;;;;;;12.55;10.95;;;22.40;99.90;;;;;;5052359;28;20461;-85
2021/06/04 07:49:48;;;;;;;14.68;11.57;;;22.50;99.90;;;;;;5035722;28;20101;-85
2021/06/04 07:52:50;;;;;;;15.48;10.05;;;22.50;99.90;;;;;;5035734;28;20102;-85
2021/06/04 07:55:40;;;;;;;12.20;10.07;;;22.60;99.90;;;;;;5035078;28;20052;-86
2021/06/04 07:58:07;;;;;;;10.52;8.68;;;22.70;99.90;;;;;;5035708;28;20024;-85
2021/06/04 08:03:52;;;;;;;10.48;8.68;;;22.90;99.90;;;;;;5042260;28;20032;-85
2021/06/04 08:06:36;;;;;;;10.10;8.23;;;23.00;99.90;;;;;;5032005;28;20399;-84
2021/06/04 08:09:10;;;;;;;10.00;8.75;;;23.10;99.90;;;;;;5020655;28;20059;-84
2021/06/04 08:12:33;;;;;;;10.13;8.30;;;23.20;99.90;;;;;;5035277;28;20379;-83
2021/06/04 08:15:13;;;;;;;9.90;8.13;;;23.30;99.90;;;;;;4990255;28;20064;-84
2021/06/04 08:17:52;;;;;;;;;;;;;;;;;;;;;
2021/06/04 08:20:30;;;;;;;10.50;7.85;;;23.40;99.90;;;;;;5053714;28;20029;-85
2021/06/04 08:23:14;;;;;;;8.80;6.93;;;23.40;99.90;;;;;;5000776;28;20469;-84
2021/06/04 08:25:50;;;;;;;7.93;6.78;;;23.50;99.90;;;;;;5054157;28;20025;-85
2021/06/04 08:28:35;;;;;;;10.65;7.20;;;23.70;99.90;;;;;;5049129;28;20025;-85
2021/06/04 08:31:03;;;;;;;7.47;6.00;;;23.80;99.90;;;;;;5054000;28;20472;-85
2021/06/04 08:33:58;;;;;;;6.93;5.32;;;23.80;99.90;;;;;;5053939;28;20021;-86
2021/06/04 08:37:04;;;;;;;;;;;;;;;;;;;;;
2021/06/04 08:39:43;;;;;;;;;;;;;;;;;;;;;
2021/06/04 08:45:53;;;;;;;;;;;;;;;;;;;;;
2021/06/04 08:48:41;;;;;;;8.77;6.15;;;23.90;99.90;;;;;;5049454;28;20456;-85
2021/06/04 08:51:40;;;;;;;9.13;6.70;;;23.90;99.90;;;;;;5036658;28;20025;-85
2021/06/04 08:54:58;;;;;;;9.30;6.80;;;23.70;99.90;;;;;;5053246;28;20102;-86
2021/06/04 08:58:01;;;;;;;9.07;6.90;;;23.60;99.90;;;;;;5044139;28;20021;-85
2021/06/04 09:00:34;;;;;;;8.48;6.40;;;23.60;99.90;;;;;;5056498;28;20020;-87
2021/06/04 09:03:21;;;;;;;8.07;6.15;;;23.70;99.90;;;;;;5056473;28;20467;-85
2021/06/04 09:05:58;;;;;;;8.93;6.07;;;23.80;99.90;;;;;;5055481;28;20036;-85
2021/06/04 09:08:47;;;;;;;;;;;;;;;;;;;;;
2021/06/04 09:11:53;;;;;;;8.75;6.85;;;24.00;99.90;;;;;;5032468;28;20032;-87
2021/06/04 09:14:24;;;;;;;8.05;6.53;;;24.10;99.90;;;;;;5048589;28;20017;-86
2021/06/04 09:17:26;;;;;;;8.15;7.07;;;24.20;99.90;;;;;;5037344;28;20029;-86
2021/06/04 09:20:19;;;;;;;;;;;;;;;;;;;;;
2021/06/04 09:23:14;;;;;;;7.68;6.22;;;24.20;99.90;;;;;;5047971;28;20359;-86
2021/06/04 09:25:52;;;;;;;;;;;;;;;;;;;;;
2021/06/04 09:28:46;;;;;;;;;;;;;;;;;;;;;
2021/06/04 09:35:39;;;;;;;8.43;6.00;;;25.20;99.90;;;;;;4921356;29;20026;-85
2021/06/04 09:38:31;;;;;;;7.30;5.50;;;26.70;99.90;;;;;;4954232;29;20511;-87
2021/06/04 09:41:48;;;;;;;;;;;;;;;;;;;;;
2021/06/04 09:44:31;;;;;;;6.88;5.20;;;28.30;98.60;;;;;;5036027;28;20027;-87
2021/06/04 09:51:34;;;;;;;7.57;5.68;;;28.40;97.60;;;;;;4907006;29;20036;-90
2021/06/04 09:54:44;;;;;;;7.57;5.53;;;27.80;97.30;;;;;;4930548;29;20028;-90
2021/06/04 09:57:29;;;;;;;;;;;;;;;;;;;;;
2021/06/04 10:00:45;;;;;;;;;;;;;;;;;;;;;
2021/06/04 10:03:40;;;;;;;6.32;5.05;;;27.30;97.80;;;;;;4940803;29;20023;-91
2021/06/04 10:06:57;;;;;;;;;;;;;;;;;;;;;
2021/06/04 10:09:30;;;;;;;8.35;5.95;;;27.20;97.40;;;;;;5026722;28;20037;-89
2021/06/04 10:16:02;;;;;;;6.93;4.80;;;27.50;97.30;;;;;;5036800;28;20030;-89
2021/06/04 10:18:42;;;;;;;6.53;4.57;;;28.30;96.80;;;;;;5019916;28;20024;-90
2021/06/04 10:21:36;;;;;;;7.25;5.00;;;29.40;96.50;;;;;;5018367;28;20029;-90
2021/06/04 10:24:02;;;;;;;5.65;5.00;;;30.30;95.30;;;;;;5014647;28;20041;-90
2021/06/04 10:26:39;;;;;;;6.25;4.82;;;31.00;93.90;;;;;;5035385;28;20104;-91
2021/06/04 10:29:17;;;;;;;6.30;4.43;;;31.50;93.30;;;;;;5018109;28;20028;-90
2021/06/04 10:42:09;;;;;;;;;;;;;;;;;;;;;
2021/06/04 10:45:10;;;;;;;5.35;3.95;;;32.30;90.50;;;;;;4955051;29;20038;-90
2021/06/04 10:48:27;;;;;;;;;;;;;;;;;;;;;
2021/06/04 10:51:30;;;;;;;5.97;4.13;;;31.30;90.60;;;;;;4955131;29;20031;-90
2021/06/04 10:54:26;;;;;;;5.55;3.90;;;30.80;90.80;;;;;;4926861;29;20498;-90
2021/06/04 10:57:32;;;;;;;6.10;4.20;;;30.60;91.30;;;;;;4939866;29;20023;-89
2021/06/04 11:00:51;;;;;;;;;;;;;;;;;;;;;
2021/06/04 11:04:31;;;;;;;;;;;;;;;;;;;;;
2021/06/04 11:07:41;;;;;;;;;;;;;;;;;;;;;
2021/06/04 11:10:57;;;;;;;;;;;;;;;;;;;;;
2021/06/04 11:14:23;;;;;;;;;;;;;;;;;;;;;
2021/06/04 11:20:43;;;;;;;;;;;;;;;;;;;;;
2021/06/04 11:23:32;;;;;;;5.78;4.60;;;34.10;83.30;;;;;;4960551;28;20030;-87
2021/06/04 11:27:01;;;;;;;;;;;;;;;;;;;;;
2021/06/04 11:33:47;;;;;;;;;;;;;;;;;;;;;
2021/06/04 11:36:31;;;;;;;8.43;5.55;;;35.40;78.10;;;;;;4900483;29;20392;-87
2021/06/04 11:39:49;;;;;;;;;;;;;;;;;;;;;
2021/06/04 11:42:36;;;;;;;5.38;4.68;;;34.90;75.50;;;;;;4971779;28;20406;-89
2021/06/04 11:45:08;;;;;;;5.00;4.45;;;35.10;75.50;;;;;;4971160;28;20038;-87
2021/06/04 11:47:49;;;;;;;5.85;4.70;;;35.10;74.70;;;;;;4987649;28;20026;-89
2021/06/04 11:50:53;;;;;;;6.30;4.65;;;34.40;74.40;;;;;;4996054;28;20041;-88
2021/06/04 11:54:22;;;;;;;;;;;;;;;;;;;;;
2021/06/04 11:57:16;;;;;;;5.93;5.22;;;33.20;75.80;;;;;;4975017;28;20059;-88
2021/06/04 11:59:59;;;;;;;6.25;5.10;;;32.70;77.80;;;;;;5027685;28;20690;-88
2021/06/04 12:03:17;;;;;;;8.63;5.38;;;32.70;77.70;;;;;;5031368;28;20029;-89
2021/06/04 12:06:26;;;;;;;;;;;;;;;;;;;;;
2021/06/04 12:09:35;;;;;;;6.80;5.13;;;32.50;77.20;;;;;;5010252;28;20041;-90
2021/06/04 12:12:46;;;;;;;5.32;4.80;;;32.50;77.10;;;;;;5029284;28;20495;-89
2021/06/04 12:21:59;;;;;;;6.30;5.05;;;31.60;79.20;;;;;;4919678;29;20027;-88
2021/06/04 12:28:11;;;;;;;;;;;;;;;;;;;;;
2021/06/04 12:31:23;;;;;;;;;;;;;;;;;;;;;
2021/06/04 12:34:01;;;;;;;;;;;;;;;;;;;;;
2021/06/04 12:41:06;;;;;;;7.40;5.70;;;34.80;77.70;;;;;;4876507;29;20103;-89
2021/06/04 12:54:30;;;;;;;7.25;5.90;;;35.80;74.70;;;;;;4808112;29;20031;-90
2021/06/04 13:04:06;;;;;;;7.72;5.47;;;32.60;77.20;;;;;;4805156;29;20125;-88
2021/06/04 13:07:18;;;;;;;7.10;5.30;;;31.80;79.00;;;;;;4924521;29;20635;-89
2021/06/04 13:10:49;;;;;;;;;;;;;;;;;;;;;
2021/06/04 13:17:19;;;;;;;;;;;;;;;;;;;;;
2021/06/04 13:20:05;;;;;;;6.40;5.47;;;32.20;79.80;;;;;;4991763;28;20518;-89
2021/06/04 13:22:35;;;;;;;6.60;5.00;;;32.10;79.90;;;;;;5011782;28;20516;-90
2021/06/04 13:25:25;;;;;;;6.10;5.00;;;32.10;80.40;;;;;;5025730;28;20519;-89
2021/06/04 13:28:40;;;;;;;6.40;5.47;;;31.70;80.40;;;;;;5053344;28;20487;-88
2021/06/04 13:35:06;;;;;;;5.80;5.00;;;31.80;80.30;;;;;;4921343;29;20024;-90
2021/06/04 13:40:52;;;;;;;7.07;5.60;;;32.90;79.10;;;;;;4981545;28;20041;-89
2021/06/04 13:43:53;;;;;;;6.30;5.20;;;33.70;78.30;;;;;;5012570;28;20059;-87
2021/06/04 13:46:52;;;;;;;9.13;6.00;;;34.10;76.40;;;;;;5014074;28;20027;-90
2021/06/04 13:49:53;;;;;;;5.47;4.85;;;34.40;75.40;;;;;;4982993;28;20042;-92
2021/06/04 13:52:49;;;;;;;6.78;4.80;;;34.70;74.50;;;;;;5011970;28;20114;-89
2021/06/04 13:55:41;;;;;;;7.13;4.60;;;34.30;74.40;;;;;;5031086;28;20021;-87
2021/06/04 13:58:37;;;;;;;5.78;4.53;;;33.40;74.90;;;;;;5048807;28;20048;-89
2021/06/04 14:01:56;;;;;;;5.60;4.38;;;32.30;75.80;;;;;;5045137;28;20037;-87
2021/06/04 14:04:40;;;;;;;6.57;5.03;;;31.70;76.90;;;;;;5045567;28;20166;-88
2021/06/04 14:10:33;;;;;;;7.18;5.57;;;31.00;78.60;;;;;;4970036;28;20488;-90
2021/06/04 14:13:25;;;;;;;6.85;4.93;;;31.10;79.10;;;;;;4989877;28;20773;-91
2021/06/04 14:16:01;;;;;;;;;;;;;;;;;;;;;
2021/06/04 14:18:56;;;;;;;5.55;4.55;;;32.20;77.60;;;;;;4991129;28;20022;-89
2021/06/04 14:22:11;;;;;;;4.82;4.18;;;32.40;77.20;;;;;;5025741;28;20049;-90
2021/06/04 14:24:53;;;;;;;5.22;4.72;;;32.30;76.00;;;;;;5019153;28;20049;-88
2021/06/04 14:27:45;;;;;;;4.97;4.45;;;31.80;76.90;;;;;;5014389;28;20018;-90
2021/06/04 14:30:38;;;;;;;6.17;4.50;;;31.50;77.40;;;;;;5013711;28;20029;-89
2021/06/04 14:34:00;;;;;;;5.80;4.65;;;31.10;77.90;;;;;;5028488;28;20271;-88
2021/06/04 14:36:36;;;;;;;4.47;3.97;;;31.10;77.70;;;;;;4989062;28;20095;-88
2021/06/04 14:39:26;;;;;;;4.72;4.10;;;31.40;77.40;;;;;;5036520;28;20396;-87
2021/06/04 14:41:56;;;;;;;5.35;4.22;;;31.80;76.30;;;;;;5035177;28;20026;-87
2021/06/04 14:44:50;;;;;;;5.70;4.10;;;32.20;75.70;;;;;;5029960;28;20056;-86
2021/06/04 14:47:40;;;;;;;6.88;4.50;;;32.40;75.10;;;;;;5022285;28;20157;-86
2021/06/04 14:50:38;;;;;;;5.70;3.88;;;32.40;73.80;;;;;;5030014;28;20381;-86
2021/06/04 14:53:13;;;;;;;7.75;4.15;;;32.20;72.90;;;;;;4990381;28;20038;-88
2021/06/04 14:55:39;;;;;;;5.20;3.97;;;32.30;73.30;;;;;;5011174;28;20112;-86
2021/06/04 14:58:29;;;;;;;4.57;3.85;;;32.30;73.10;;;;;;5011882;28;20108;-88
2021/06/04 15:01:06;;;;;;;5.80;3.95;;;32.20;72.30;;;;;;5013836;28;20189;-90
2021/06/04 15:03:43;;;;;;;6.82;3.95;;;32.10;73.70;;;;;;5032022;28;20021;-90
2021/06/04 15:06:46;;;;;;;4.97;3.67;;;32.20;73.80;;;;;;5031566;28;20018;-90
2021/06/04 15:09:18;;;;;;;4.28;3.70;;;32.50;73.70;;;;;;5017426;28;20033;-90
2021/06/04 15:12:13;;;;;;;6.40;4.35;;;32.50;73.60;;;;;;5013784;28;20541;-88
2021/06/04 15:18:10;;;;;;;;;;;;;;;;;;;;;
2021/06/04 15:20:46;;;;;;;6.30;4.85;;;32.10;73.60;;;;;;5025280;28;20044;-90
2021/06/04 15:23:15;;;;;;;5.28;4.28;;;32.10;72.90;;;;;;5012973;28;20033;-89
2021/06/04 15:25:58;;;;;;;5.50;4.75;;;31.90;73.70;;;;;;5030053;28;20045;-90
2021/06/04 15:28:33;;;;;;;5.22;4.43;;;31.80;73.60;;;;;;5046409;28;20513;-89
2021/06/04 15:31:08;;;;;;;5.22;4.15;;;31.80;73.40;;;;;;5031649;28;20040;-88
2021/06/04 15:33:37;;;;;;;8.10;5.20;;;31.70;73.40;;;;;;5064620;28;20077;-87
2021/06/04 15:36:07;;;;;;;7.07;5.07;;;31.30;73.50;;;;;;5039023;28;20121;-90
2021/06/04 15:38:37;;;;;;;7.70;5.47;;;30.80;74.10;;;;;;5031033;28;20059;-88
2021/06/04 15:41:04;;;;;;;5.78;4.82;;;30.60;74.90;;;;;;5032308;28;20025;-87
2021/06/04 15:43:44;;;;;;;;;;;;;;;;;;;;;
2021/06/04 15:46:29;;;;;;;5.97;4.60;;;30.20;75.10;;;;;;5049651;28;20449;-86
2021/06/04 15:48:59;;;;;;;6.28;4.72;;;30.00;75.20;;;;;;5018793;28;20036;-88